createdAt,value
2022-08-24T00:00:35.562Z,100546.88
2022-08-24T00:02:38.954Z,100542.25
2022-08-24T00:04:42.345Z,100545.78
2022-08-24T00:06:50.044Z,100556.09
2022-08-24T00:08:56.405Z,100560.19
2022-08-24T00:10:59.895Z,100535.59
2022-08-24T00:13:03.431Z,100527.97
2022-08-24T00:15:09.145Z,100535.75
2022-08-24T00:17:12.944Z,100541.56
2022-08-24T00:19:17.366Z,100538.19
2022-08-24T00:21:20.939Z,100540.00
2022-08-24T00:23:24.166Z,100550.19
2022-08-24T00:25:29.029Z,100543.28
2022-08-24T00:27:32.396Z,100540.59
2022-08-24T00:29:36.335Z,100544.25
2022-08-24T00:31:39.933Z,100543.56
2022-08-24T00:33:43.488Z,100539.47
2022-08-24T00:35:46.769Z,100530.91
2022-08-24T00:37:51.492Z,100535.72
2022-08-24T00:39:54.867Z,100537.97
2022-08-24T00:42:00.716Z,100539.97
2022-08-24T00:44:06.710Z,100537.44
2022-08-24T00:46:18.699Z,100539.25
2022-08-24T00:48:27.069Z,100540.25
2022-08-24T00:50:36.728Z,100544.06
2022-08-24T00:52:45.048Z,100539.53
2022-08-24T00:54:52.525Z,100536.03
2022-08-24T00:57:02.043Z,100534.34
2022-08-24T00:59:11.415Z,100538.84
2022-08-24T01:01:15.391Z,100546.16
2022-08-24T01:03:19.829Z,100543.94
2022-08-24T01:05:23.245Z,100544.91
2022-08-24T01:07:29.405Z,100534.63
2022-08-24T01:09:32.919Z,100533.13
2022-08-24T01:11:36.759Z,100526.22
2022-08-24T01:13:43.423Z,100533.53
2022-08-24T01:15:49.993Z,100546.47
2022-08-24T01:18:10.978Z,100542.38
2022-08-24T01:20:14.875Z,100538.31
2022-08-24T01:22:41.060Z,100550.03
2022-08-24T01:24:47.464Z,100542.97
2022-08-24T01:26:52.139Z,100541.13
2022-08-24T01:29:01.387Z,100534.25
2022-08-24T01:31:05.646Z,100542.25
2022-08-24T01:33:11.019Z,100552.22
2022-08-24T01:35:14.244Z,100552.94
2022-08-24T01:37:17.829Z,100555.50
2022-08-24T01:39:25.659Z,100553.53
2022-08-24T01:41:30.445Z,100556.91
2022-08-24T01:43:37.324Z,100552.09
2022-08-24T01:45:43.745Z,100552.69
2022-08-24T01:47:47.326Z,100564.19
2022-08-24T01:49:51.255Z,100588.25
2022-08-24T01:51:58.597Z,100596.00
2022-08-24T01:54:03.160Z,100593.31
2022-08-24T01:56:07.112Z,100591.75
2022-08-24T01:58:12.859Z,100596.25
2022-08-24T02:00:18.611Z,100597.06
2022-08-24T02:02:26.903Z,100595.66
2022-08-24T02:04:30.235Z,100591.44
2022-08-24T02:06:33.647Z,100590.47
2022-08-24T02:08:37.161Z,100601.84
2022-08-24T02:10:40.557Z,100595.38
2022-08-24T02:12:58.093Z,100582.72
2022-08-24T02:15:03.737Z,100588.63
2022-08-24T02:17:08.355Z,100591.16
2022-08-24T02:19:12.061Z,100588.25
2022-08-24T02:21:16.973Z,100578.53
2022-08-24T02:23:20.991Z,100584.97
2022-08-24T02:25:25.928Z,100584.16
2022-08-24T02:27:29.364Z,100596.66
2022-08-24T02:29:32.779Z,100586.94
2022-08-24T02:31:38.125Z,100582.47
2022-08-24T02:33:42.566Z,100584.41
2022-08-24T02:35:46.576Z,100588.06
2022-08-24T02:37:50.051Z,100589.06
2022-08-24T02:39:53.538Z,100591.28
2022-08-24T02:41:58.800Z,100598.34
2022-08-24T02:44:02.630Z,100603.53
2022-08-24T02:46:06.687Z,100608.72
2022-08-24T02:48:19.477Z,100601.41
2022-08-24T02:50:23.035Z,100597.06
2022-08-24T02:52:26.488Z,100598.75
2022-08-24T02:54:30.270Z,100607.03
2022-08-24T02:56:33.734Z,100602.41
2022-08-24T02:58:37.032Z,100616.47
2022-08-24T03:00:41.825Z,100621.81
2022-08-24T03:02:45.770Z,100623.50
2022-08-24T03:04:50.683Z,100619.84
2022-08-24T03:06:54.380Z,100621.56
2022-08-24T03:08:57.982Z,100616.22
2022-08-24T03:11:01.451Z,100616.22
2022-08-24T03:13:05.110Z,100616.22
2022-08-24T03:15:11.485Z,100617.19
2022-08-24T03:17:15.138Z,100610.28
2022-08-24T03:19:18.426Z,100612.09
2022-08-24T03:21:23.772Z,100612.25
2022-08-24T03:23:28.058Z,100616.75
2022-08-24T03:25:37.723Z,100604.38
2022-08-24T03:27:41.023Z,100602.66
2022-08-24T03:29:44.756Z,100600.13
2022-08-24T03:31:48.513Z,100606.59
2022-08-24T03:33:52.022Z,100601.25
2022-08-24T03:35:55.850Z,100610.28
2022-08-24T03:38:01.297Z,100607.59
2022-08-24T03:40:05.576Z,100608.72
2022-08-24T03:42:10.271Z,100606.88
2022-08-24T03:44:13.670Z,100603.66
2022-08-24T03:46:20.530Z,100611.53
2022-08-24T03:48:24.402Z,100605.31
2022-08-24T03:50:28.243Z,100609.56
2022-08-24T03:52:33.872Z,100619.41
2022-08-24T03:54:39.222Z,100621.50
2022-08-24T03:56:42.619Z,100619.78
2022-08-24T03:58:46.643Z,100618.13
2022-08-24T04:00:50.153Z,100615.00
2022-08-24T04:02:53.637Z,100621.31
2022-08-24T04:04:58.863Z,100625.56
2022-08-24T04:07:02.237Z,100631.03
2022-08-24T04:09:08.077Z,100626.81
2022-08-24T04:11:19.713Z,100621.47
2022-08-24T04:13:22.947Z,100631.31
2022-08-24T04:15:26.252Z,100641.28
2022-08-24T04:17:31.942Z,100634.97
2022-08-24T04:19:36.293Z,100636.50
2022-08-24T04:21:40.077Z,100642.81
2022-08-24T04:23:46.810Z,100651.56
2022-08-24T04:25:51.570Z,100650.69
2022-08-24T04:27:56.301Z,100649.00
2022-08-24T04:30:00.358Z,100640.28
2022-08-24T04:32:09.751Z,100659.13
2022-08-24T04:34:14.511Z,100658.25
2022-08-24T04:36:20.891Z,100662.91
2022-08-24T04:38:25.396Z,100663.88
2022-08-24T04:40:49.733Z,100669.22
2022-08-24T04:42:55.280Z,100665.84
2022-08-24T04:44:59.578Z,100661.50
2022-08-24T04:47:02.967Z,100666.09
2022-08-24T04:49:06.387Z,100671.44
2022-08-24T04:51:14.139Z,100674.97
2022-08-24T04:53:18.273Z,100673.88
2022-08-24T04:55:24.971Z,100679.06
2022-08-24T04:57:28.308Z,100676.41
2022-08-24T04:59:35.043Z,100680.88
2022-08-24T05:01:38.448Z,100683.81
2022-08-24T05:03:44.770Z,100679.59
2022-08-24T05:05:50.936Z,100685.06
2022-08-24T05:07:56.709Z,100685.91
2022-08-24T05:10:00.275Z,100694.78
2022-08-24T05:12:03.609Z,100693.91
2022-08-24T05:14:11.629Z,100693.06
2022-08-24T05:16:18.876Z,100694.31
2022-08-24T05:18:23.152Z,100700.63
2022-08-24T05:20:26.420Z,100704.88
2022-08-24T05:22:30.101Z,100710.19
2022-08-24T05:24:34.661Z,100715.53
2022-08-24T05:26:39.227Z,100717.25
2022-08-24T05:28:43.712Z,100720.03
2022-08-24T05:30:47.082Z,100728.06
2022-08-24T05:32:55.746Z,100723.53
2022-08-24T05:35:01.464Z,100718.34
2022-08-24T05:37:06.485Z,100727.31
2022-08-24T05:39:24.509Z,100738.88
2022-08-24T05:41:31.708Z,100740.69
2022-08-24T05:43:44.227Z,100736.06
2022-08-24T05:45:47.599Z,100746.59
2022-08-24T05:47:50.947Z,100741.84
2022-08-24T05:50:21.693Z,100743.38
2022-08-24T05:52:25.277Z,100760.13
2022-08-24T05:54:28.569Z,100753.69
2022-08-24T05:56:35.145Z,100764.25
2022-08-24T05:58:39.398Z,100765.06
2022-08-24T06:00:45.675Z,100763.97
2022-08-24T06:02:53.073Z,100778.19
2022-08-24T06:04:58.031Z,100780.72
2022-08-24T06:07:02.762Z,100785.34
2022-08-24T06:09:07.756Z,100778.19
2022-08-24T06:11:13.289Z,100781.81
2022-08-24T06:13:17.457Z,100784.38
2022-08-24T06:15:22.180Z,100788.59
2022-08-24T06:17:27.193Z,100796.34
2022-08-24T06:19:30.553Z,100803.97
2022-08-24T06:21:34.464Z,100802.84
2022-08-24T06:23:40.449Z,100793.72
2022-08-24T06:26:02.345Z,100803.16
2022-08-24T06:28:05.737Z,100813.47
2022-08-24T06:30:11.577Z,100810.50
2022-08-24T06:32:17.757Z,100814.03
2022-08-24T06:34:21.345Z,100815.88
2022-08-24T06:36:24.818Z,100815.59
2022-08-24T06:38:29.084Z,100813.66
2022-08-24T06:40:34.086Z,100819.53
2022-08-24T06:42:37.612Z,100819.63
2022-08-24T06:44:53.118Z,100821.31
2022-08-24T06:46:59.348Z,100826.19
2022-08-24T06:49:03.234Z,100829.31
2022-08-24T06:51:12.446Z,100830.84
2022-08-24T06:53:16.305Z,100828.88
2022-08-24T06:55:20.395Z,100834.97
2022-08-24T06:57:25.424Z,100843.53
2022-08-24T06:59:29.717Z,100839.47
2022-08-24T07:01:33.171Z,100839.06
2022-08-24T07:03:37.593Z,100826.16
2022-08-24T07:05:57.904Z,100827.44
2022-08-24T07:08:16.232Z,100839.94
2022-08-24T07:10:22.959Z,100830.53
2022-08-24T07:12:30.405Z,100824.63
2022-08-24T07:14:34.142Z,100825.78
2022-08-24T07:16:39.283Z,100836.78
2022-08-24T07:18:49.387Z,100839.81
2022-08-24T07:20:56.863Z,100843.38
2022-08-24T07:23:07.627Z,100850.56
2022-08-24T07:25:13.690Z,100848.34
2022-08-24T07:27:18.161Z,100843.34
2022-08-24T07:29:47.272Z,100844.03
2022-08-24T07:31:49.288Z,100847.13
2022-08-24T07:34:11.728Z,100857.03
2022-08-24T07:36:22.127Z,100844.94
2022-08-24T07:38:26.616Z,100853.72
2022-08-24T07:40:36.513Z,100849.94
2022-08-24T07:42:55.983Z,100840.91
2022-08-24T07:45:02.631Z,100835.47
2022-08-24T07:47:27.538Z,100846.94
2022-08-24T07:49:37.145Z,100852.00
2022-08-24T07:51:44.902Z,100865.06
2022-08-24T07:53:53.939Z,100874.16
2022-08-24T07:56:04.710Z,100868.50
2022-08-24T07:58:10.016Z,100881.31
2022-08-24T08:00:19.786Z,100886.38
2022-08-24T08:02:30.806Z,100889.59
2022-08-24T08:04:40.475Z,100894.44
2022-08-24T08:06:44.824Z,100889.94
2022-08-24T08:08:48.616Z,100896.47
2022-08-24T08:10:52.502Z,100896.88
2022-08-24T08:12:56.549Z,100898.78
2022-08-24T08:15:00.126Z,100896.31
2022-08-24T08:17:05.667Z,100891.44
2022-08-24T08:19:10.451Z,100895.97
2022-08-24T08:21:31.458Z,100889.09
2022-08-24T08:23:54.273Z,100895.59
2022-08-24T08:26:09.025Z,100893.91
2022-08-24T08:28:35.449Z,100897.56
2022-08-24T08:30:42.192Z,100908.16
2022-08-24T08:32:47.721Z,100912.56
2022-08-24T08:34:51.364Z,100914.81
2022-08-24T08:36:55.557Z,100908.91
2022-08-24T08:39:00.377Z,100904.41
2022-08-24T08:41:24.472Z,100915.66
2022-08-24T08:43:57.586Z,100915.41
2022-08-24T08:46:17.792Z,100912.84
2022-08-24T08:49:04.487Z,100915.66
2022-08-24T08:52:00.605Z,100921.63
2022-08-24T08:54:39.480Z,100922.19
2022-08-24T08:57:11.593Z,100924.19
2022-08-24T08:59:31.517Z,100922.47
2022-08-24T09:01:49.330Z,100920.09
2022-08-24T09:04:25.380Z,100934.91
2022-08-24T09:07:09.900Z,100922.19
2022-08-24T09:09:49.655Z,100930.06
2022-08-24T09:12:02.308Z,100930.78
2022-08-24T09:14:21.434Z,100928.53
2022-08-24T09:16:36.362Z,100938.81
2022-08-24T09:18:57.016Z,100934.56
2022-08-24T09:21:37.048Z,100929.22
2022-08-24T09:23:55.510Z,100924.13
2022-08-24T09:26:05.905Z,100935.13
2022-08-24T09:28:17.286Z,100939.19
2022-08-24T09:30:24.011Z,100934.66
2022-08-24T09:32:39.107Z,100932.84
2022-08-24T09:34:54.362Z,100923.53
2022-08-24T09:37:09.729Z,100927.91
2022-08-24T09:39:37.036Z,100922.09
2022-08-24T09:42:20.831Z,100920.22
2022-08-24T09:45:06.690Z,100939.75
2022-08-24T09:47:59.187Z,100934.03
2022-08-24T09:50:21.381Z,100942.72
2022-08-24T09:52:44.667Z,100957.94
2022-08-24T09:55:24.295Z,100959.88
2022-08-24T09:58:01.816Z,100951.97
2022-08-24T10:00:13.933Z,100949.09
2022-08-24T10:02:38.446Z,100944.06
2022-08-24T10:04:52.459Z,100952.28
2022-08-24T10:07:08.381Z,100949.28
2022-08-24T10:09:53.203Z,100952.63
2022-08-24T10:12:05.906Z,100950.59
2022-08-24T10:14:20.535Z,100942.00
2022-08-24T10:16:39.736Z,100944.50
2022-08-24T10:18:56.394Z,100941.66
2022-08-24T10:21:15.372Z,100938.47
2022-08-24T10:23:42.270Z,100929.38
2022-08-24T10:25:54.611Z,100929.97
2022-08-24T10:28:07.681Z,100931.81
2022-08-24T10:30:32.283Z,100923.31
2022-08-24T10:32:50.061Z,100939.75
2022-08-24T10:35:05.336Z,100935.94
2022-08-24T10:37:42.319Z,100935.09
2022-08-24T10:40:13.506Z,100939.31
2022-08-24T10:43:05.988Z,100952.19
2022-08-24T10:45:21.595Z,100945.31
2022-08-24T10:47:31.115Z,100939.59
2022-08-24T10:50:32.371Z,100948.25
2022-08-24T10:52:54.738Z,100950.09
2022-08-24T10:55:12.536Z,100949.53
2022-08-24T10:57:28.702Z,100950.97
2022-08-24T10:59:38.646Z,100949.06
2022-08-24T11:02:11.911Z,100953.75
2022-08-24T11:04:30.165Z,100956.59
2022-08-24T11:06:37.312Z,100963.34
2022-08-24T11:08:54.443Z,100955.56
2022-08-24T11:11:10.397Z,100966.50
2022-08-24T11:13:23.568Z,100963.31
2022-08-24T11:15:28.312Z,100964.75
2022-08-24T11:17:35.114Z,100970.78
2022-08-24T11:19:40.009Z,100976.75
2022-08-24T11:21:50.663Z,100969.84
2022-08-24T11:23:54.166Z,100971.28
2022-08-24T11:26:03.925Z,100975.47
2022-08-24T11:28:15.396Z,100977.16
2022-08-24T11:30:26.772Z,100985.78
2022-08-24T11:32:34.667Z,100970.69
2022-08-24T11:34:41.138Z,100962.13
2022-08-24T11:36:44.989Z,100970.06
2022-08-24T11:38:48.814Z,100969.91
2022-08-24T11:40:56.034Z,100989.34
2022-08-24T11:43:13.567Z,100986.97
2022-08-24T11:45:26.153Z,100990.00
2022-08-24T11:47:43.253Z,100987.25
2022-08-24T11:49:56.593Z,100997.31
2022-08-24T11:52:09.434Z,101003.63
2022-08-24T11:54:24.979Z,101004.59
2022-08-24T11:56:37.904Z,101000.69
2022-08-24T11:58:51.374Z,100990.84
2022-08-24T12:01:02.498Z,100990.69
2022-08-24T12:03:16.043Z,100992.78
2022-08-24T12:05:27.733Z,100988.25
2022-08-24T12:07:44.823Z,100994.16
2022-08-24T12:10:01.457Z,100990.28
2022-08-24T12:12:14.798Z,100982.91
2022-08-24T12:14:24.690Z,100983.59
2022-08-24T12:16:35.628Z,100985.28
2022-08-24T12:18:52.479Z,100990.22
2022-08-24T12:20:58.867Z,100993.25
2022-08-24T12:23:07.708Z,100987.91
2022-08-24T12:25:27.811Z,100998.91
2022-08-24T12:27:35.580Z,101003.69
2022-08-24T12:29:44.885Z,101003.25
2022-08-24T12:31:54.425Z,101008.47
2022-08-24T12:34:02.242Z,101006.09
2022-08-24T12:36:15.095Z,101010.63
2022-08-24T12:38:25.281Z,101002.97
2022-08-24T12:40:33.608Z,101006.09
2022-08-24T12:42:51.284Z,101016.31
2022-08-24T12:45:01.171Z,101015.16
2022-08-24T12:47:05.069Z,101014.16
2022-08-24T12:49:16.554Z,101014.50
2022-08-24T12:51:28.086Z,101020.88
2022-08-24T12:54:13.474Z,101010.59
2022-08-24T12:56:40.299Z,101017.28
2022-08-24T12:58:59.075Z,101014.78
2022-08-24T13:01:06.771Z,101017.16
2022-08-24T13:03:27.313Z,101022.88
2022-08-24T13:05:43.096Z,101015.38
2022-08-24T13:07:50.508Z,101025.38
2022-08-24T13:10:09.550Z,101028.34
2022-08-24T13:12:50.170Z,101031.19
2022-08-24T13:14:54.106Z,101030.34
2022-08-24T13:17:14.761Z,101031.72
2022-08-24T13:19:33.029Z,101034.78
2022-08-24T13:21:47.402Z,101039.88
2022-08-24T13:24:31.435Z,101032.00
2022-08-24T13:26:36.164Z,101035.22
2022-08-24T13:28:45.649Z,101030.53
2022-08-24T13:31:01.360Z,101036.06
2022-08-24T13:33:11.492Z,101035.22
2022-08-24T13:35:37.247Z,101038.59
2022-08-24T13:37:41.672Z,101038.59
2022-08-24T13:40:08.341Z,101047.66
2022-08-24T13:42:38.140Z,101046.84
2022-08-24T13:45:01.175Z,101033.22
2022-08-24T13:47:13.892Z,101048.03
2022-08-24T13:49:34.410Z,101045.03
2022-08-24T13:51:46.277Z,101034.25
2022-08-24T13:54:04.278Z,101034.09
2022-08-24T13:56:33.532Z,101043.03
2022-08-24T13:58:44.123Z,101042.72
2022-08-24T14:00:53.216Z,101046.94
2022-08-24T14:03:11.020Z,101044.41
2022-08-24T14:05:26.326Z,101045.25
2022-08-24T14:07:34.892Z,101061.94
2022-08-24T14:09:49.184Z,101043.09
2022-08-24T14:12:19.407Z,101056.00
2022-08-24T14:14:39.994Z,101050.09
2022-08-24T14:17:19.473Z,101052.09
2022-08-24T14:19:32.362Z,101048.88
2022-08-24T14:21:41.426Z,101051.34
2022-08-24T14:23:59.370Z,101057.38
2022-08-24T14:26:40.447Z,101053.47
2022-08-24T14:28:45.803Z,101051.63
2022-08-24T14:30:54.342Z,101040.84
2022-08-24T14:33:13.468Z,101031.72
2022-08-24T14:35:27.791Z,101045.47
2022-08-24T14:37:35.556Z,101036.56
2022-08-24T14:39:49.234Z,101041.13
2022-08-24T14:41:59.645Z,101037.56
2022-08-24T14:44:35.605Z,101037.22
2022-08-24T14:46:50.278Z,101038.03
2022-08-24T14:49:04.274Z,101040.75
2022-08-24T14:51:20.531Z,101032.97
2022-08-24T14:53:45.599Z,101038.94
2022-08-24T14:56:02.513Z,101044.81
2022-08-24T14:58:29.002Z,101042.94
2022-08-24T15:00:57.844Z,101041.25
2022-08-24T15:03:30.094Z,101051.31
2022-08-24T15:05:43.174Z,101044.81
2022-08-24T15:07:56.249Z,101047.78
2022-08-24T15:10:02.505Z,101043.56
2022-08-24T15:12:15.678Z,101051.25
2022-08-24T15:14:37.345Z,101043.50
2022-08-24T15:16:54.092Z,101033.91
2022-08-24T15:19:08.307Z,101037.56
2022-08-24T15:21:31.538Z,101039.72
2022-08-24T15:23:54.463Z,101042.25
2022-08-24T15:26:06.049Z,101045.50
2022-08-24T15:28:13.605Z,101046.19
2022-08-24T15:30:23.796Z,101051.41
2022-08-24T15:32:45.333Z,101046.88
2022-08-24T15:34:53.392Z,101054.09
2022-08-24T15:37:01.917Z,101051.56
2022-08-24T15:39:07.632Z,101056.94
2022-08-24T15:41:15.965Z,101055.25
2022-08-24T15:43:19.924Z,101051.56
2022-08-24T15:45:24.412Z,101060.16
2022-08-24T15:47:32.778Z,101049.09
2022-08-24T15:49:46.573Z,101053.47
2022-08-24T15:51:53.549Z,101054.84
2022-08-24T15:53:57.332Z,101052.56
2022-08-24T15:56:23.787Z,101052.81
2022-08-24T15:58:33.536Z,101040.75
2022-08-24T16:00:55.975Z,101033.41
2022-08-24T16:03:21.925Z,101037.38
2022-08-24T16:05:38.786Z,101021.44
2022-08-24T16:08:07.649Z,101022.13
2022-08-24T16:10:14.415Z,101031.56
2022-08-24T16:12:24.408Z,101019.09
2022-08-24T16:14:31.206Z,101026.19
2022-08-24T16:16:40.646Z,101025.69
2022-08-24T16:18:51.603Z,101027.75
2022-08-24T16:20:59.167Z,101029.13
2022-08-24T16:23:06.420Z,101023.91
2022-08-24T16:25:19.709Z,101027.06
2022-08-24T16:27:23.063Z,101021.78
2022-08-24T16:29:46.278Z,101024.59
2022-08-24T16:31:53.209Z,101019.00
2022-08-24T16:34:14.301Z,101028.88
2022-08-24T16:36:20.845Z,101027.66
2022-08-24T16:38:24.705Z,101032.13
2022-08-24T16:40:31.489Z,101017.03
2022-08-24T16:42:36.456Z,101036.81
2022-08-24T16:44:42.890Z,101038.25
2022-08-24T16:46:48.060Z,101039.72
2022-08-24T16:48:54.338Z,101030.13
2022-08-24T16:50:59.522Z,101041.25
2022-08-24T16:53:03.008Z,101047.19
2022-08-24T16:55:07.566Z,101053.25
2022-08-24T16:57:15.473Z,101059.47
2022-08-24T16:59:25.545Z,101058.78
2022-08-24T17:01:29.096Z,101056.56
2022-08-24T17:03:33.305Z,101060.41
2022-08-24T17:05:37.124Z,101061.22
2022-08-24T17:07:45.357Z,101066.59
2022-08-24T17:09:50.062Z,101057.56
2022-08-24T17:11:53.691Z,101068.84
2022-08-24T17:13:57.302Z,101067.16
2022-08-24T17:16:01.058Z,101063.75
2022-08-24T17:18:07.780Z,101057.56
2022-08-24T17:20:12.381Z,101062.09
2022-08-24T17:22:16.616Z,101065.94
2022-08-24T17:24:23.755Z,101069.78
2022-08-24T17:26:28.013Z,101072.78
2022-08-24T17:28:31.694Z,101071.22
2022-08-24T17:30:35.560Z,101067.84
2022-08-24T17:32:39.535Z,101076.88
2022-08-24T17:34:43.167Z,101072.69
2022-08-24T17:36:47.033Z,101071.00
2022-08-24T17:38:56.045Z,101085.41
2022-08-24T17:41:02.256Z,101089.97
2022-08-24T17:43:05.877Z,101087.28
2022-08-24T17:45:10.433Z,101084.59
2022-08-24T17:47:15.632Z,101088.94
2022-08-24T17:49:19.754Z,101083.44
2022-08-24T17:51:23.607Z,101085.41
2022-08-24T17:53:27.526Z,101093.63
2022-08-24T17:55:31.137Z,101086.88
2022-08-24T17:57:36.690Z,101080.09
2022-08-24T17:59:40.634Z,101082.41
2022-08-24T18:01:44.651Z,101084.56
2022-08-24T18:03:48.329Z,101086.69
2022-08-24T18:05:52.753Z,101089.69
2022-08-24T18:07:57.621Z,101093.66
2022-08-24T18:10:01.478Z,101097.50
2022-08-24T18:12:06.512Z,101102.88
2022-08-24T18:14:11.638Z,101108.41
2022-08-24T18:16:18.911Z,101104.00
2022-08-24T18:18:22.539Z,101103.13
2022-08-24T18:20:28.372Z,101105.28
2022-08-24T18:22:32.062Z,101104.59
2022-08-24T18:24:36.192Z,101094.97
2022-08-24T18:26:41.048Z,101105.72
2022-08-24T18:28:51.643Z,101104.28
2022-08-24T18:30:56.843Z,101104.59
2022-08-24T18:33:01.917Z,101112.81
2022-08-24T18:35:06.052Z,101112.25
2022-08-24T18:37:09.961Z,101115.38
2022-08-24T18:39:13.583Z,101114.97
2022-08-24T18:41:17.481Z,101121.63
2022-08-24T18:43:24.068Z,101126.56
2022-08-24T18:45:32.617Z,101138.59
2022-08-24T18:47:38.102Z,101146.13
2022-08-24T18:49:41.792Z,101148.22
2022-08-24T18:51:48.289Z,101152.19
2022-08-24T18:53:53.426Z,101141.59
2022-08-24T18:55:57.766Z,101149.97
2022-08-24T18:58:03.375Z,101154.59
2022-08-24T19:00:10.049Z,101153.06
2022-08-24T19:02:33.790Z,101156.75
2022-08-24T19:04:43.944Z,101162.53
2022-08-24T19:06:47.799Z,101166.34
2022-08-24T19:08:51.795Z,101166.78
2022-08-24T19:10:56.084Z,101170.59
2022-08-24T19:13:02.361Z,101176.94
2022-08-24T19:15:06.999Z,101173.72
2022-08-24T19:17:10.647Z,101169.47
2022-08-24T19:19:14.253Z,101170.75
2022-08-24T19:21:20.713Z,101178.06
2022-08-24T19:23:26.613Z,101187.25
2022-08-24T19:25:30.401Z,101192.06
2022-08-24T19:27:34.568Z,101197.69
2022-08-24T19:29:55.164Z,101194.31
2022-08-24T19:31:59.405Z,101204.28
2022-08-24T19:34:03.783Z,101201.88
2022-08-24T19:36:07.896Z,101209.22
2022-08-24T19:38:12.876Z,101210.34
2022-08-24T19:40:18.776Z,101207.22
2022-08-24T19:42:23.915Z,101206.94
2022-08-24T19:44:51.689Z,101213.69
2022-08-24T19:46:55.924Z,101217.91
2022-08-24T19:48:59.873Z,101216.63
2022-08-24T19:51:04.892Z,101221.28
2022-08-24T19:53:10.443Z,101224.22
2022-08-24T19:55:17.606Z,101222.81
2022-08-24T19:57:42.130Z,101228.56
2022-08-24T19:59:46.542Z,101234.19
2022-08-24T20:01:50.537Z,101223.88
2022-08-24T20:03:54.615Z,101237.81
2022-08-24T20:05:58.427Z,101242.72
2022-08-24T20:08:03.726Z,101243.97
2022-08-24T20:10:12.806Z,101253.00
2022-08-24T20:12:18.250Z,101250.44
2022-08-24T20:14:21.946Z,101242.53
2022-08-24T20:16:29.729Z,101240.13
2022-08-24T20:18:35.412Z,101236.84
2022-08-24T20:20:39.517Z,101238.97
2022-08-24T20:22:43.824Z,101239.34
2022-08-24T20:24:47.627Z,101240.59
2022-08-24T20:26:51.247Z,101247.16
2022-08-24T20:28:59.099Z,101243.78
2022-08-24T20:31:02.973Z,101246.59
2022-08-24T20:33:11.258Z,101249.50
2022-08-24T20:35:15.291Z,101258.69
2022-08-24T20:37:22.925Z,101250.50
2022-08-24T20:39:28.953Z,101248.81
2022-08-24T20:41:32.591Z,101257.13
2022-08-24T20:43:36.492Z,101255.13
2022-08-24T20:45:41.918Z,101260.34
2022-08-24T20:47:50.942Z,101271.94
2022-08-24T20:49:54.650Z,101271.19
2022-08-24T20:51:58.450Z,101268.78
2022-08-24T20:54:02.768Z,101261.03
2022-08-24T20:56:12.002Z,101271.00
2022-08-24T20:58:19.203Z,101282.09
2022-08-24T21:00:24.878Z,101278.25
2022-08-24T21:02:30.492Z,101278.88
2022-08-24T21:04:34.370Z,101287.41
2022-08-24T21:06:39.125Z,101289.38
2022-08-24T21:08:45.272Z,101287.69
2022-08-24T21:10:49.093Z,101284.28
2022-08-24T21:12:53.439Z,101295.50
2022-08-24T21:14:57.036Z,101295.00
2022-08-24T21:17:01.101Z,101299.03
2022-08-24T21:19:06.118Z,101305.75
2022-08-24T21:21:10.951Z,101305.28
2022-08-24T21:23:14.545Z,101308.47
2022-08-24T21:25:18.848Z,101313.31
2022-08-24T21:27:22.474Z,101312.56
2022-08-24T21:29:25.957Z,101316.47
2022-08-24T21:31:30.264Z,101315.03
2022-08-24T21:33:52.033Z,101320.63
2022-08-24T21:35:57.108Z,101326.22
2022-08-24T21:38:01.079Z,101323.81
2022-08-24T21:40:06.634Z,101327.53
2022-08-24T21:42:10.780Z,101332.25
2022-08-24T21:44:14.445Z,101330.81
2022-08-24T21:46:18.675Z,101336.16
2022-08-24T21:48:22.615Z,101340.78
2022-08-24T21:50:26.828Z,101340.88
2022-08-24T21:52:32.449Z,101342.72
2022-08-24T21:54:36.359Z,101345.63
2022-08-24T21:56:40.695Z,101345.88
2022-08-24T21:58:45.670Z,101340.16
2022-08-24T22:00:49.614Z,101346.59
2022-08-24T22:02:53.293Z,101346.72
2022-08-24T22:04:57.541Z,101348.78
2022-08-24T22:07:02.589Z,101342.81
2022-08-24T22:09:08.643Z,101352.91
2022-08-24T22:11:13.094Z,101349.72
2022-08-24T22:13:16.965Z,101360.66
2022-08-24T22:15:23.315Z,101364.41
2022-08-24T22:17:27.193Z,101355.53
2022-08-24T22:19:30.963Z,101366.56
2022-08-24T22:21:36.499Z,101369.50
2022-08-24T22:23:41.081Z,101370.31
2022-08-24T22:25:47.088Z,101373.97
2022-08-24T22:27:51.101Z,101372.28
2022-08-24T22:29:54.841Z,101381.13
2022-08-24T22:31:58.524Z,101368.84
2022-08-24T22:34:04.443Z,101375.16
2022-08-24T22:36:10.936Z,101369.94
2022-08-24T22:38:15.005Z,101376.16
2022-08-24T22:40:19.256Z,101372.50
2022-08-24T22:42:24.599Z,101377.00
2022-08-24T22:44:29.187Z,101376.16
2022-08-24T22:46:33.413Z,101376.34
2022-08-24T22:48:37.680Z,101382.69
2022-08-24T22:50:46.170Z,101382.78
2022-08-24T22:52:49.844Z,101386.66
2022-08-24T22:54:56.717Z,101386.66
2022-08-24T22:57:00.446Z,101378.88
2022-08-24T22:59:08.699Z,101382.63
2022-08-24T23:01:20.128Z,101388.09
2022-08-24T23:03:24.147Z,101394.75
2022-08-24T23:05:27.990Z,101387.81
2022-08-24T23:07:31.700Z,101390.09
2022-08-24T23:09:44.789Z,101397.09
2022-08-24T23:11:49.348Z,101393.66
2022-08-24T23:13:53.296Z,101392.19
2022-08-24T23:15:58.617Z,101395.28
2022-08-24T23:18:23.733Z,101395.59
2022-08-24T23:20:26.243Z,101396.06
2022-08-24T23:22:32.718Z,101400.78
2022-08-24T23:24:37.300Z,101396.91
2022-08-24T23:26:42.098Z,101402.88
2022-08-24T23:28:50.190Z,101402.78
2022-08-24T23:30:54.167Z,101407.28
2022-08-24T23:32:59.644Z,101413.56
2022-08-24T23:35:03.914Z,101414.41
2022-08-24T23:37:08.131Z,101412.69
2022-08-24T23:39:14.393Z,101408.53
2022-08-24T23:41:20.254Z,101413.88
2022-08-24T23:43:23.918Z,101413.03
2022-08-24T23:45:28.316Z,101418.50
2022-08-24T23:47:35.942Z,101424.91
2022-08-24T23:49:42.054Z,101425.72
2022-08-24T23:51:45.807Z,101416.78
2022-08-24T23:53:50.761Z,101423.19
2022-08-24T23:55:55.370Z,101424.06
2022-08-24T23:57:59.241Z,101424.06
